createdAt,value
2018-08-19T00:00:50.225Z,3.93
2018-08-19T00:03:18.886Z,3.50
2018-08-19T00:05:47.357Z,3.80
2018-08-19T00:08:15.894Z,4.13
2018-08-19T00:11:15.165Z,3.70
2018-08-19T00:13:43.622Z,3.50
2018-08-19T00:16:12.113Z,3.10
2018-08-19T00:18:40.630Z,3.37
2018-08-19T00:21:10.880Z,3.40
2018-08-19T00:23:44.700Z,3.40
2018-08-19T00:26:14.877Z,3.87
2018-08-19T00:28:43.402Z,3.10
2018-08-19T00:31:11.872Z,2.90
2018-08-19T00:33:40.323Z,3.23
2018-08-19T00:36:23.762Z,3.43
2018-08-19T00:38:52.286Z,3.10
2018-08-19T00:41:20.742Z,3.60
2018-08-19T00:43:49.202Z,3.07
2018-08-19T00:46:20.350Z,3.60
2018-08-19T00:48:48.793Z,3.23
2018-08-19T00:51:17.242Z,3.63
2018-08-19T00:53:45.715Z,3.80
2018-08-19T00:56:14.153Z,3.00
2018-08-19T00:58:42.643Z,3.40
2018-08-19T01:01:21.210Z,3.40
2018-08-19T01:03:55.649Z,3.40
2018-08-19T01:06:24.122Z,3.37
2018-08-19T01:08:52.586Z,3.20
2018-08-19T01:11:33.306Z,3.20
2018-08-19T01:14:02.005Z,3.13
2018-08-19T01:16:30.462Z,3.70
2018-08-19T01:19:03.293Z,3.37
2018-08-19T01:21:32.962Z,3.60
2018-08-19T01:24:02.650Z,3.47
2018-08-19T01:26:33.683Z,3.37
2018-08-19T01:29:02.166Z,3.67
2018-08-19T01:31:30.638Z,3.30
2018-08-19T01:33:59.121Z,3.17
2018-08-19T01:36:28.961Z,3.27
2018-08-19T01:38:57.467Z,3.70
2018-08-19T01:41:25.962Z,3.67
2018-08-19T01:44:03.962Z,3.60
2018-08-19T01:46:35.402Z,3.63
2018-08-19T01:49:03.921Z,4.03
2018-08-19T01:51:32.362Z,3.47
2018-08-19T01:54:05.379Z,3.90
2018-08-19T01:56:34.330Z,3.87
2018-08-19T01:59:02.830Z,3.70
2018-08-19T02:01:43.589Z,3.77
2018-08-19T02:04:12.142Z,4.17
2018-08-19T02:06:41.467Z,3.37
2018-08-19T02:09:11.807Z,3.83
2018-08-19T02:11:44.345Z,3.83
2018-08-19T02:14:12.815Z,3.83
2018-08-19T02:16:41.334Z,3.80
2018-08-19T02:19:10.101Z,3.73
2018-08-19T02:21:38.650Z,3.70
2018-08-19T02:24:07.402Z,3.30
2018-08-19T02:26:35.822Z,3.63
2018-08-19T02:29:18.522Z,4.37
2018-08-19T02:31:46.937Z,3.97
2018-08-19T02:34:17.308Z,3.77
2018-08-19T02:36:45.772Z,3.80
2018-08-19T02:39:14.170Z,3.80
2018-08-19T02:41:46.962Z,3.50
2018-08-19T02:44:15.362Z,4.10
2018-08-19T02:46:43.825Z,3.93
2018-08-19T02:49:12.238Z,3.87
2018-08-19T02:51:40.686Z,3.90
2018-08-19T02:54:09.115Z,3.80
2018-08-19T02:56:38.127Z,3.80
2018-08-19T02:59:06.630Z,3.90
2018-08-19T03:01:35.038Z,4.87
2018-08-19T03:04:03.470Z,4.23
2018-08-19T03:06:31.892Z,4.10
2018-08-19T03:09:00.438Z,4.10
2018-08-19T03:11:28.889Z,4.17
2018-08-19T03:13:57.558Z,4.23
2018-08-19T03:16:25.965Z,3.87
2018-08-19T03:18:54.418Z,4.07
2018-08-19T03:21:23.137Z,3.87
2018-08-19T03:23:52.906Z,4.50
2018-08-19T03:26:21.371Z,4.23
2018-08-19T03:28:49.766Z,4.20
2018-08-19T03:31:18.200Z,4.83
2018-08-19T03:33:46.601Z,4.23
2018-08-19T03:36:15.031Z,4.87
2018-08-19T03:38:43.426Z,4.80
2018-08-19T03:41:11.855Z,5.10
2018-08-19T03:43:42.907Z,4.63
2018-08-19T03:46:19.602Z,4.97
2018-08-19T03:48:48.661Z,4.90
2018-08-19T03:51:17.084Z,5.23
2018-08-19T03:53:45.509Z,4.70
2018-08-19T03:56:19.349Z,4.70
2018-08-19T03:58:48.986Z,4.70
2018-08-19T04:01:27.538Z,4.50
2018-08-19T04:03:55.968Z,4.73
2018-08-19T04:06:24.442Z,4.83
2018-08-19T04:08:52.926Z,5.07
2018-08-19T04:11:21.363Z,5.10
2018-08-19T04:13:49.785Z,4.33
2018-08-19T04:16:18.214Z,4.67
2018-08-19T04:18:46.715Z,4.30
2018-08-19T04:21:17.494Z,4.90
2018-08-19T04:23:48.094Z,5.13
2018-08-19T04:26:16.544Z,4.80
2018-08-19T04:28:45.553Z,5.53
2018-08-19T04:31:19.437Z,5.37
2018-08-19T04:33:48.717Z,5.07
2018-08-19T04:36:18.537Z,5.23
2018-08-19T04:38:46.997Z,4.77
2018-08-19T04:41:16.066Z,5.37
2018-08-19T04:43:45.171Z,5.10
2018-08-19T04:46:13.602Z,4.93
2018-08-19T04:48:43.491Z,5.70
2018-08-19T04:51:11.887Z,4.23
2018-08-19T04:53:40.327Z,4.93
2018-08-19T04:56:08.761Z,4.70
2018-08-19T04:58:37.213Z,5.63
2018-08-19T05:01:05.755Z,5.20
2018-08-19T05:03:34.204Z,5.60
2018-08-19T05:06:02.665Z,5.10
2018-08-19T05:08:31.180Z,5.00
2018-08-19T05:10:59.554Z,5.17
2018-08-19T05:13:29.023Z,5.00
2018-08-19T05:15:57.597Z,5.00
2018-08-19T05:18:26.042Z,5.03
2018-08-19T05:21:01.271Z,5.43
2018-08-19T05:23:29.908Z,4.90
2018-08-19T05:25:58.634Z,4.83
2018-08-19T05:28:27.125Z,5.03
2018-08-19T05:30:55.536Z,4.63
2018-08-19T05:33:23.974Z,5.10
2018-08-19T05:35:54.494Z,5.07
2018-08-19T05:38:22.961Z,4.80
2018-08-19T05:40:56.773Z,5.33
2018-08-19T05:43:25.237Z,5.37
2018-08-19T05:45:55.382Z,5.33
2018-08-19T05:48:24.105Z,5.23
2018-08-19T05:50:52.858Z,4.90
2018-08-19T05:53:21.662Z,5.30
2018-08-19T05:55:50.215Z,5.43
2018-08-19T05:58:19.030Z,4.77
2018-08-19T06:00:52.758Z,5.67
2018-08-19T06:03:21.413Z,5.97
2018-08-19T06:05:49.883Z,6.70
2018-08-19T06:08:18.347Z,6.60
2018-08-19T06:10:46.802Z,6.10
2018-08-19T06:13:15.235Z,6.53
2018-08-19T06:15:43.694Z,6.27
2018-08-19T06:18:12.152Z,6.80
2018-08-19T06:20:40.601Z,7.00
2018-08-19T06:23:09.030Z,6.33
2018-08-19T06:25:37.470Z,7.20
2018-08-19T06:28:05.920Z,6.50
2018-08-19T06:30:34.358Z,6.13
2018-08-19T06:33:02.805Z,6.60
2018-08-19T06:35:31.261Z,6.77
2018-08-19T06:37:59.695Z,7.20
2018-08-19T06:40:28.430Z,7.67
2018-08-19T06:42:56.877Z,7.07
2018-08-19T06:45:25.352Z,6.40
2018-08-19T06:47:53.785Z,6.90
2018-08-19T06:50:24.228Z,7.07
2018-08-19T06:52:53.321Z,6.63
2018-08-19T06:55:21.897Z,6.67
2018-08-19T06:57:50.382Z,6.30
2018-08-19T07:00:27.141Z,7.13
2018-08-19T07:02:57.118Z,6.67
2018-08-19T07:05:25.619Z,7.40
2018-08-19T07:07:54.117Z,6.77
2018-08-19T07:10:29.255Z,7.60
2018-08-19T07:13:13.417Z,7.43
2018-08-19T07:15:43.101Z,6.93
2018-08-19T07:18:13.386Z,7.20
2018-08-19T07:20:42.839Z,6.60
2018-08-19T07:23:12.109Z,6.10
2018-08-19T07:25:42.241Z,6.63
2018-08-19T07:28:12.149Z,6.00
2018-08-19T07:30:41.148Z,6.43
2018-08-19T07:33:09.753Z,6.10
2018-08-19T07:35:38.313Z,6.50
2018-08-19T07:38:06.778Z,5.83
2018-08-19T07:40:35.308Z,6.00
2018-08-19T07:43:03.769Z,5.80
2018-08-19T07:45:32.225Z,6.57
2018-08-19T07:48:00.714Z,5.73
2018-08-19T07:50:29.165Z,5.60
2018-08-19T07:52:57.610Z,5.37
2018-08-19T07:55:26.057Z,5.97
2018-08-19T07:57:54.538Z,5.13
2018-08-19T08:00:28.423Z,5.40
2018-08-19T08:02:56.842Z,5.03
2018-08-19T08:05:30.521Z,4.90
2018-08-19T08:07:58.941Z,4.80
2018-08-19T08:10:27.374Z,5.23
2018-08-19T08:13:00.870Z,4.27
2018-08-19T08:15:29.384Z,4.90
2018-08-19T08:17:57.806Z,4.47
2018-08-19T08:20:26.233Z,4.13
2018-08-19T08:22:54.739Z,4.37
2018-08-19T08:25:23.217Z,3.63
2018-08-19T08:27:51.644Z,4.27
2018-08-19T08:30:20.069Z,3.63
2018-08-19T08:32:50.514Z,4.17
2018-08-19T08:35:18.955Z,3.70
2018-08-19T08:37:47.395Z,4.50
2018-08-19T08:40:15.869Z,3.83
2018-08-19T08:42:45.288Z,3.70
2018-08-19T08:45:14.914Z,3.20
2018-08-19T08:47:43.509Z,3.73
2018-08-19T08:50:12.795Z,3.37
2018-08-19T08:52:44.817Z,2.87
2018-08-19T08:55:13.802Z,3.23
2018-08-19T08:57:42.260Z,3.40
2018-08-19T09:00:12.111Z,2.47
2018-08-19T09:02:40.554Z,2.93
2018-08-19T09:05:10.693Z,2.80
2018-08-19T09:07:39.661Z,2.97
2018-08-19T09:10:08.245Z,3.47
2018-08-19T09:12:51.570Z,3.07
2018-08-19T09:15:20.195Z,2.40
2018-08-19T09:17:48.665Z,2.40
2018-08-19T09:20:17.150Z,2.80
2018-08-19T09:22:46.334Z,3.10
2018-08-19T09:25:14.791Z,2.50
2018-08-19T09:27:43.759Z,2.13
2018-08-19T09:30:19.434Z,2.40
2018-08-19T09:33:00.475Z,2.57
2018-08-19T09:35:30.270Z,2.00
2018-08-19T09:38:03.083Z,1.50
2018-08-19T09:40:31.946Z,1.80
2018-08-19T09:43:00.405Z,2.00
2018-08-19T09:45:28.913Z,1.63
2018-08-19T09:47:57.511Z,2.00
2018-08-19T09:50:25.847Z,1.60
2018-08-19T09:52:54.295Z,1.50
2018-08-19T09:55:29.279Z,1.93
2018-08-19T09:57:57.897Z,1.40
2018-08-19T10:00:30.527Z,1.40
2018-08-19T10:02:59.874Z,1.37
2018-08-19T10:05:29.109Z,1.77
2018-08-19T10:07:57.548Z,1.50
2018-08-19T10:10:25.962Z,1.43
2018-08-19T10:12:54.410Z,1.37
2018-08-19T10:15:22.834Z,1.23
2018-08-19T10:17:51.273Z,0.90
2018-08-19T10:20:19.701Z,1.03
2018-08-19T10:22:48.195Z,1.27
2018-08-19T10:25:17.897Z,1.07
2018-08-19T10:27:48.039Z,1.40
2018-08-19T10:30:17.313Z,1.10
2018-08-19T10:32:46.563Z,1.40
2018-08-19T10:35:17.394Z,1.10
2018-08-19T10:37:46.488Z,0.90
2018-08-19T10:40:14.958Z,1.00
2018-08-19T10:42:43.407Z,1.40
2018-08-19T10:45:21.187Z,1.00
2018-08-19T10:47:49.770Z,1.03
2018-08-19T10:50:18.246Z,1.20
2018-08-19T10:52:46.744Z,1.27
2018-08-19T10:55:15.605Z,1.20
2018-08-19T10:57:44.074Z,0.93
2018-08-19T11:00:14.326Z,1.00
2018-08-19T11:02:42.818Z,1.07
2018-08-19T11:05:11.255Z,0.97
2018-08-19T11:07:39.709Z,1.20
2018-08-19T11:10:26.329Z,1.00
2018-08-19T11:12:58.787Z,1.20
2018-08-19T11:15:46.185Z,1.20
2018-08-19T11:18:24.828Z,1.10
2018-08-19T11:20:56.229Z,1.33
2018-08-19T11:23:26.115Z,1.20
2018-08-19T11:25:55.270Z,1.30
2018-08-19T11:28:37.281Z,1.30
2018-08-19T11:31:05.905Z,1.53
2018-08-19T11:33:42.243Z,1.23
2018-08-19T11:36:11.113Z,1.30
2018-08-19T11:38:40.538Z,1.13
2018-08-19T11:41:10.231Z,1.33
2018-08-19T11:43:41.287Z,1.07
2018-08-19T11:46:10.037Z,1.03
2018-08-19T11:48:39.417Z,1.20
2018-08-19T11:51:08.090Z,1.40
2018-08-19T11:53:36.553Z,1.10
2018-08-19T11:56:05.231Z,1.13
2018-08-19T11:58:41.242Z,1.10
2018-08-19T12:01:14.398Z,1.10
2018-08-19T12:03:58.106Z,1.17
2018-08-19T12:06:27.879Z,1.00
2018-08-19T12:08:57.514Z,1.00
2018-08-19T12:11:27.973Z,1.20
2018-08-19T12:13:56.474Z,1.30
2018-08-19T12:16:26.222Z,1.30
2018-08-19T12:18:54.695Z,1.00
2018-08-19T12:21:23.657Z,1.10
2018-08-19T12:24:06.362Z,1.00
2018-08-19T12:26:38.982Z,1.10
2018-08-19T12:29:07.432Z,1.33
2018-08-19T12:31:35.842Z,1.20
2018-08-19T12:34:04.282Z,1.10
2018-08-19T12:36:32.718Z,1.07
2018-08-19T12:39:01.158Z,1.10
2018-08-19T12:41:29.701Z,1.40
2018-08-19T12:43:59.973Z,1.20
2018-08-19T12:46:28.422Z,1.40
2018-08-19T12:48:56.837Z,1.30
2018-08-19T12:51:25.342Z,1.50
2018-08-19T12:53:53.702Z,1.13
2018-08-19T12:56:22.141Z,1.50
2018-08-19T12:58:50.579Z,1.20
2018-08-19T13:01:19.037Z,1.50
2018-08-19T13:03:47.471Z,1.47
2018-08-19T13:06:15.932Z,1.50
2018-08-19T13:08:44.337Z,1.67
2018-08-19T13:11:12.797Z,1.40
2018-08-19T13:13:41.210Z,1.67
2018-08-19T13:16:09.650Z,1.60
2018-08-19T13:18:40.739Z,1.43
2018-08-19T13:21:16.822Z,1.33
2018-08-19T13:23:45.287Z,1.90
2018-08-19T13:26:13.787Z,1.37
2018-08-19T13:28:46.619Z,1.43
2018-08-19T13:31:16.226Z,1.60
2018-08-19T13:33:44.639Z,1.53
2018-08-19T13:36:13.077Z,1.73
2018-08-19T13:38:41.473Z,1.70
2018-08-19T13:41:09.974Z,1.83
2018-08-19T13:43:38.458Z,1.67
2018-08-19T13:46:06.951Z,1.50
2018-08-19T13:48:35.363Z,1.40
2018-08-19T13:51:03.838Z,1.50
2018-08-19T13:53:32.281Z,1.40
2018-08-19T13:56:00.743Z,1.90
2018-08-19T13:58:29.199Z,2.20
2018-08-19T14:00:57.658Z,1.47
2018-08-19T14:03:26.094Z,1.67
2018-08-19T14:05:54.526Z,1.80
2018-08-19T14:08:22.935Z,1.57
2018-08-19T14:10:51.358Z,1.63
2018-08-19T14:13:19.826Z,1.73
2018-08-19T14:15:48.277Z,1.97
2018-08-19T14:18:16.717Z,2.23
2018-08-19T14:20:45.130Z,1.80
2018-08-19T14:23:13.583Z,2.30
2018-08-19T14:25:42.009Z,1.87
2018-08-19T14:28:10.474Z,1.87
2018-08-19T14:30:38.976Z,1.90
2018-08-19T14:33:07.762Z,2.20
2018-08-19T14:35:36.166Z,2.30
2018-08-19T14:38:04.637Z,2.13
2018-08-19T14:40:33.216Z,2.20
2018-08-19T14:43:01.580Z,1.90
2018-08-19T14:45:29.998Z,2.07
2018-08-19T14:47:58.476Z,2.33
2018-08-19T14:50:26.902Z,2.13
2018-08-19T14:52:55.361Z,2.10
2018-08-19T14:55:23.815Z,2.43
2018-08-19T14:57:52.279Z,2.40
2018-08-19T15:00:20.714Z,2.23
2018-08-19T15:02:49.155Z,2.23
2018-08-19T15:05:19.288Z,2.30
2018-08-19T15:07:48.132Z,2.50
2018-08-19T15:10:22.630Z,2.03
2018-08-19T15:12:51.130Z,2.50
2018-08-19T15:15:19.602Z,2.30
2018-08-19T15:17:55.939Z,2.70
2018-08-19T15:20:29.677Z,2.67
2018-08-19T15:23:09.273Z,2.50
2018-08-19T15:25:37.686Z,3.03
2018-08-19T15:28:06.116Z,2.70
2018-08-19T15:30:34.586Z,2.20
2018-08-19T15:33:03.150Z,2.40
2018-08-19T15:35:31.455Z,2.50
2018-08-19T15:37:59.885Z,2.47
2018-08-19T15:40:38.504Z,2.70
2018-08-19T15:43:07.090Z,2.20
2018-08-19T15:45:35.568Z,2.67
2018-08-19T15:48:04.997Z,2.17
2018-08-19T15:50:33.423Z,2.03
2018-08-19T15:53:03.167Z,2.20
2018-08-19T15:55:31.573Z,2.70
2018-08-19T15:58:02.282Z,2.77
2018-08-19T16:00:34.482Z,2.70
2018-08-19T16:03:02.919Z,2.40
2018-08-19T16:05:31.385Z,2.50
2018-08-19T16:07:59.855Z,2.40
2018-08-19T16:10:28.333Z,2.40
2018-08-19T16:12:56.818Z,2.53
2018-08-19T16:15:27.505Z,3.53
2018-08-19T16:17:57.026Z,2.80
2018-08-19T16:20:25.639Z,3.83
2018-08-19T16:22:54.076Z,6.73
2018-08-19T16:25:22.611Z,3.50
2018-08-19T16:27:51.593Z,3.07
2018-08-19T16:30:20.419Z,2.60
2018-08-19T16:32:48.865Z,2.87
2018-08-19T16:35:17.312Z,4.03
2018-08-19T16:37:45.746Z,2.87
2018-08-19T16:40:14.197Z,3.30
2018-08-19T16:42:42.753Z,2.53
2018-08-19T16:45:12.422Z,2.93
2018-08-19T16:47:40.867Z,3.00
2018-08-19T16:50:11.453Z,3.77
2018-08-19T16:52:39.845Z,2.70
2018-08-19T16:55:09.010Z,2.60
2018-08-19T16:57:37.457Z,3.40
2018-08-19T17:00:07.039Z,2.67
2018-08-19T17:02:35.571Z,2.60
2018-08-19T17:05:05.066Z,2.60
2018-08-19T17:07:33.525Z,2.67
2018-08-19T17:10:02.098Z,2.37
2018-08-19T17:12:30.408Z,2.80
2018-08-19T17:14:58.869Z,5.00
2018-08-19T17:17:27.281Z,3.20
2018-08-19T17:19:55.738Z,4.00
2018-08-19T17:22:24.193Z,20.23
2018-08-19T17:24:52.630Z,5.40
2018-08-19T17:27:21.117Z,3.77
2018-08-19T17:29:49.574Z,3.47
2018-08-19T17:32:18.016Z,4.00
2018-08-19T17:34:46.478Z,4.40
2018-08-19T17:37:14.887Z,3.13
2018-08-19T17:39:43.462Z,2.80
2018-08-19T17:42:13.863Z,4.77
2018-08-19T17:44:42.446Z,3.07
2018-08-19T17:47:10.907Z,5.83
2018-08-19T17:49:39.319Z,3.70
2018-08-19T17:52:07.787Z,3.30
2018-08-19T17:54:36.226Z,3.50
2018-08-19T17:57:04.721Z,16.67
2018-08-19T17:59:33.222Z,5.40
2018-08-19T18:02:01.597Z,3.30
2018-08-19T18:04:38.445Z,3.30
2018-08-19T18:07:10.361Z,3.23
2018-08-19T18:09:39.950Z,3.63
2018-08-19T18:12:08.386Z,3.53
2018-08-19T18:14:36.794Z,3.30
2018-08-19T18:17:05.234Z,3.10
2018-08-19T18:19:35.053Z,3.57
2018-08-19T18:22:03.553Z,3.77
2018-08-19T18:24:32.001Z,3.47
2018-08-19T18:27:00.482Z,3.00
2018-08-19T18:29:38.930Z,3.57
2018-08-19T18:32:07.388Z,3.07
2018-08-19T18:34:38.294Z,3.23
2018-08-19T18:37:06.714Z,3.17
2018-08-19T18:39:35.168Z,3.60
2018-08-19T18:42:03.640Z,4.10
2018-08-19T18:44:32.074Z,3.30
2018-08-19T18:47:00.538Z,3.37
2018-08-19T18:49:28.938Z,3.50
2018-08-19T18:52:03.823Z,3.30
2018-08-19T18:54:32.283Z,3.97
2018-08-19T18:57:03.977Z,4.00
2018-08-19T18:59:32.423Z,3.50
2018-08-19T19:02:02.176Z,3.90
2018-08-19T19:04:30.596Z,3.30
2018-08-19T19:06:59.133Z,3.90
2018-08-19T19:09:38.598Z,3.80
2018-08-19T19:12:07.057Z,3.97
2018-08-19T19:14:35.492Z,5.63
2018-08-19T19:17:03.974Z,5.33
2018-08-19T19:19:36.613Z,3.70
2018-08-19T19:22:05.081Z,3.73
2018-08-19T19:24:40.222Z,3.90
2018-08-19T19:27:09.302Z,3.13
2018-08-19T19:29:37.726Z,3.90
2018-08-19T19:32:26.217Z,3.70
2018-08-19T19:34:54.664Z,3.40
2018-08-19T19:37:23.105Z,3.80
2018-08-19T19:40:00.747Z,4.13
2018-08-19T19:42:29.199Z,4.40
2018-08-19T19:44:57.603Z,3.93
2018-08-19T19:47:26.044Z,4.00
2018-08-19T19:49:58.428Z,4.67
2018-08-19T19:52:27.186Z,3.80
2018-08-19T19:54:55.631Z,4.27
2018-08-19T19:57:24.079Z,4.00
2018-08-19T19:59:52.513Z,4.30
2018-08-19T20:02:26.358Z,4.27
2018-08-19T20:04:54.772Z,4.13
2018-08-19T20:07:23.205Z,4.27
2018-08-19T20:09:51.614Z,4.13
2018-08-19T20:12:25.388Z,4.53
2018-08-19T20:14:53.793Z,4.13
2018-08-19T20:17:22.390Z,4.70
2018-08-19T20:19:51.090Z,4.43
2018-08-19T20:22:19.888Z,4.33
2018-08-19T20:24:48.426Z,4.27
2018-08-19T20:27:17.362Z,4.77
2018-08-19T20:29:49.433Z,4.53
2018-08-19T20:32:17.859Z,4.77
2018-08-19T20:34:46.339Z,4.50
2018-08-19T20:37:15.582Z,4.80
2018-08-19T20:39:44.029Z,4.20
2018-08-19T20:42:12.441Z,4.20
2018-08-19T20:44:40.872Z,4.13
2018-08-19T20:47:09.339Z,4.33
2018-08-19T20:49:37.769Z,4.70
2018-08-19T20:52:06.228Z,4.70
2018-08-19T20:54:34.707Z,5.00
2018-08-19T20:57:03.162Z,4.27
2018-08-19T20:59:36.733Z,5.00
2018-08-19T21:02:06.309Z,4.47
2018-08-19T21:04:34.759Z,4.83
2018-08-19T21:07:04.295Z,4.77
2018-08-19T21:09:34.233Z,5.07
2018-08-19T21:12:02.930Z,4.70
2018-08-19T21:14:31.461Z,5.03
2018-08-19T21:17:02.758Z,4.90
2018-08-19T21:19:31.209Z,4.60
2018-08-19T21:21:59.633Z,4.77
2018-08-19T21:24:28.118Z,4.70
2018-08-19T21:27:01.659Z,5.10
2018-08-19T21:29:30.572Z,4.70
2018-08-19T21:31:59.017Z,4.93
2018-08-19T21:34:27.654Z,4.63
2018-08-19T21:36:56.249Z,4.63
2018-08-19T21:39:24.702Z,4.87
2018-08-19T21:41:54.371Z,5.23
2018-08-19T21:44:22.815Z,5.07
2018-08-19T21:46:51.247Z,5.67
2018-08-19T21:49:19.736Z,5.40
2018-08-19T21:51:48.166Z,5.10
2018-08-19T21:54:17.321Z,5.47
2018-08-19T21:56:45.767Z,5.23
2018-08-19T21:59:19.386Z,4.97
2018-08-19T22:01:58.356Z,5.27
2018-08-19T22:04:27.172Z,5.60
2018-08-19T22:06:55.634Z,5.27
2018-08-19T22:09:31.133Z,5.30
2018-08-19T22:12:00.322Z,5.43
2018-08-19T22:14:29.108Z,5.60
2018-08-19T22:17:03.101Z,5.33
2018-08-19T22:19:31.902Z,5.80
2018-08-19T22:22:00.357Z,5.80
2018-08-19T22:24:28.802Z,6.20
2018-08-19T22:27:01.381Z,5.80
2018-08-19T22:29:29.780Z,5.33
2018-08-19T22:31:58.218Z,6.33
2018-08-19T22:34:26.613Z,5.63
2018-08-19T22:36:55.109Z,5.80
2018-08-19T22:39:23.566Z,5.13
2018-08-19T22:41:52.666Z,5.10
2018-08-19T22:44:21.066Z,6.10
2018-08-19T22:46:49.485Z,6.27
2018-08-19T22:49:17.914Z,6.30
2018-08-19T22:51:46.361Z,5.77
2018-08-19T22:54:14.769Z,5.63
2018-08-19T22:56:43.195Z,5.80
2018-08-19T22:59:11.626Z,5.80
2018-08-19T23:01:45.413Z,5.20
2018-08-19T23:04:13.841Z,6.03
2018-08-19T23:06:42.293Z,6.10
2018-08-19T23:09:10.708Z,6.93
2018-08-19T23:11:44.415Z,6.07
2018-08-19T23:14:24.110Z,5.67
2018-08-19T23:16:52.558Z,6.23
2018-08-19T23:19:21.740Z,6.10
2018-08-19T23:21:50.377Z,6.37
2018-08-19T23:24:18.962Z,6.43
2018-08-19T23:26:47.393Z,5.90
2018-08-19T23:29:15.805Z,6.17
2018-08-19T23:31:44.270Z,6.53
2018-08-19T23:34:12.726Z,6.13
2018-08-19T23:36:41.173Z,5.70
2018-08-19T23:39:10.226Z,6.20
2018-08-19T23:41:38.692Z,6.33
2018-08-19T23:44:07.475Z,6.17
2018-08-19T23:46:35.937Z,6.07
2018-08-19T23:49:04.370Z,6.37
2018-08-19T23:51:32.841Z,6.20
2018-08-19T23:54:02.525Z,6.67
2018-08-19T23:56:31.443Z,6.40
2018-08-19T23:59:00.297Z,7.10
